createdAt,value
2023-02-02T00:00:06.030Z,0
2023-02-02T00:07:31.798Z,0
2023-02-02T00:08:12.319Z,0
2023-02-02T00:08:52.923Z,0
2023-02-02T00:09:33.445Z,0
2023-02-02T00:10:13.974Z,0
2023-02-02T00:10:54.483Z,0
2023-02-02T00:11:35.024Z,0
2023-02-02T00:12:15.552Z,0
2023-02-02T00:12:56.102Z,0
2023-02-02T00:15:49.640Z,0
2023-02-02T00:16:30.183Z,0
2023-02-02T00:17:10.697Z,0
2023-02-02T00:17:51.219Z,0
2023-02-02T00:20:44.842Z,0
2023-02-02T00:21:25.386Z,0
2023-02-02T00:22:06.035Z,0
2023-02-02T00:22:46.389Z,0
2023-02-02T00:25:40.034Z,0
2023-02-02T00:26:20.546Z,0
2023-02-02T00:27:01.858Z,0
2023-02-02T00:27:42.376Z,0
2023-02-02T00:30:24.628Z,0
2023-02-02T00:31:05.156Z,0
2023-02-02T00:31:45.791Z,0
2023-02-02T00:32:26.174Z,0
2023-02-02T00:33:06.689Z,0
2023-02-02T00:33:47.289Z,0
2023-02-02T00:34:27.805Z,0
2023-02-02T00:35:08.847Z,0
2023-02-02T00:40:04.646Z,0
2023-02-02T00:40:45.203Z,0
2023-02-02T00:41:25.745Z,0
2023-02-02T00:42:06.238Z,0
2023-02-02T00:44:20.958Z,0
2023-02-02T00:45:02.406Z,0
2023-02-02T00:45:42.930Z,0
2023-02-02T00:46:24.329Z,0
2023-02-02T00:48:37.374Z,0
2023-02-02T00:49:17.864Z,0
2023-02-02T00:49:58.417Z,0
2023-02-02T00:50:38.954Z,0
2023-02-02T00:54:42.077Z,0
2023-02-02T00:55:23.037Z,0
2023-02-02T00:56:03.082Z,0
2023-02-02T00:56:43.628Z,0
2023-02-02T00:57:24.155Z,0
2023-02-02T00:58:04.683Z,0
2023-02-02T00:58:45.175Z,0
2023-02-02T00:59:25.711Z,0
2023-02-02T01:00:06.266Z,0
2023-02-02T01:00:46.905Z,0
2023-02-02T01:05:41.998Z,0
2023-02-02T01:06:22.502Z,0
2023-02-02T01:07:03.105Z,0
2023-02-02T01:07:43.718Z,0
2023-02-02T01:11:47.732Z,0
2023-02-02T01:12:28.313Z,0
2023-02-02T01:13:08.821Z,0
2023-02-02T01:13:49.364Z,0
2023-02-02T01:14:29.876Z,0
2023-02-02T01:15:10.382Z,0
2023-02-02T01:15:50.907Z,0
2023-02-02T01:16:31.481Z,0
2023-02-02T01:22:37.058Z,0
2023-02-02T01:23:18.408Z,0
2023-02-02T01:23:58.946Z,0
2023-02-02T01:24:39.497Z,0
2023-02-02T01:25:21.049Z,0
2023-02-02T01:31:27.261Z,0
2023-02-02T01:32:07.764Z,0
2023-02-02T01:32:48.273Z,0
2023-02-02T01:33:28.779Z,0
2023-02-02T01:34:09.313Z,0
2023-02-02T01:34:50.554Z,0
2023-02-02T01:35:31.093Z,0
2023-02-02T01:41:37.887Z,0
2023-02-02T01:42:19.365Z,0
2023-02-02T01:43:00.000Z,0
2023-02-02T01:43:40.539Z,0
2023-02-02T01:44:21.053Z,0
2023-02-02T01:45:01.586Z,0
2023-02-02T01:49:16.366Z,0
2023-02-02T01:49:56.881Z,0
2023-02-02T01:50:37.401Z,0
2023-02-02T01:51:18.018Z,0
2023-02-02T01:53:31.051Z,0
2023-02-02T01:54:11.558Z,0
2023-02-02T01:54:52.112Z,0
2023-02-02T01:55:32.678Z,0
2023-02-02T01:59:48.986Z,0
2023-02-02T02:00:29.451Z,0
2023-02-02T02:01:11.861Z,0
2023-02-02T02:01:55.036Z,0
2023-02-02T02:04:09.466Z,0
2023-02-02T02:04:50.705Z,0
2023-02-02T02:05:31.212Z,0
2023-02-02T02:06:11.813Z,0
2023-02-02T02:09:34.449Z,0
2023-02-02T02:10:15.008Z,0
2023-02-02T02:10:55.490Z,0
2023-02-02T02:11:36.008Z,0
2023-02-02T02:12:16.523Z,0
2023-02-02T02:12:57.099Z,0
2023-02-02T02:13:37.639Z,0
2023-02-02T02:20:35.840Z,0
2023-02-02T02:21:16.381Z,0
2023-02-02T02:21:56.912Z,0
2023-02-02T02:22:37.444Z,0
2023-02-02T02:26:40.742Z,0
2023-02-02T02:27:21.164Z,0
2023-02-02T02:28:01.678Z,0
2023-02-02T02:28:42.233Z,0
2023-02-02T02:29:22.754Z,0
2023-02-02T02:30:03.271Z,0
2023-02-02T02:30:43.835Z,0
2023-02-02T02:31:24.363Z,0
2023-02-02T02:32:04.848Z,0
2023-02-02T02:32:45.348Z,0
2023-02-02T02:37:42.308Z,0
2023-02-02T02:38:22.836Z,0
2023-02-02T02:39:03.333Z,0
2023-02-02T02:39:43.960Z,0
2023-02-02T02:41:59.216Z,0
2023-02-02T02:42:41.519Z,0
2023-02-02T02:43:25.687Z,0
2023-02-02T02:46:08.276Z,0
2023-02-02T02:46:48.776Z,0
2023-02-02T02:47:29.343Z,0
2023-02-02T02:48:09.901Z,0
2023-02-02T02:51:03.981Z,0
2023-02-02T02:51:44.526Z,0
2023-02-02T02:52:25.036Z,0
2023-02-02T02:53:05.555Z,0
2023-02-02T02:55:18.627Z,0
2023-02-02T02:55:59.161Z,0
2023-02-02T02:56:39.677Z,0
2023-02-02T02:57:20.205Z,0
2023-02-02T03:01:23.418Z,0
2023-02-02T03:02:03.870Z,0
2023-02-02T03:02:44.432Z,0
2023-02-02T03:05:23.215Z,0
2023-02-02T03:06:03.456Z,0
2023-02-02T03:06:43.996Z,0
2023-02-02T03:07:24.553Z,0
2023-02-02T03:10:47.736Z,0
2023-02-02T03:11:28.265Z,0
2023-02-02T03:12:09.638Z,0
2023-02-02T03:12:50.205Z,0
2023-02-02T03:13:30.703Z,0
2023-02-02T03:14:11.194Z,0
2023-02-02T03:14:51.731Z,0
2023-02-02T03:15:32.271Z,0
2023-02-02T03:22:17.601Z,0
2023-02-02T03:22:58.101Z,0
2023-02-02T03:23:38.649Z,0
2023-02-02T03:24:19.208Z,0
2023-02-02T03:24:59.837Z,0
2023-02-02T03:25:40.352Z,0
2023-02-02T03:28:18.827Z,0
2023-02-02T03:28:59.322Z,0
2023-02-02T03:29:39.865Z,0
2023-02-02T03:30:21.429Z,0
2023-02-02T03:33:03.688Z,0
2023-02-02T03:33:44.842Z,0
2023-02-02T03:34:25.356Z,0
2023-02-02T03:35:05.871Z,0
2023-02-02T03:35:46.361Z,0
2023-02-02T03:36:26.868Z,0
2023-02-02T03:37:07.376Z,0
2023-02-02T03:39:45.864Z,0
2023-02-02T03:40:26.352Z,0
2023-02-02T03:41:06.897Z,0
2023-02-02T03:41:47.444Z,0
2023-02-02T03:45:50.657Z,0
2023-02-02T03:46:31.192Z,0
2023-02-02T03:47:11.660Z,0
2023-02-02T03:47:52.448Z,0
2023-02-02T03:48:32.979Z,0
2023-02-02T03:49:13.479Z,0
2023-02-02T03:49:54.007Z,0
2023-02-02T03:50:34.533Z,0
2023-02-02T03:57:20.728Z,0
2023-02-02T03:59:59.329Z,0
2023-02-02T04:00:39.891Z,0
2023-02-02T04:01:20.464Z,0
2023-02-02T04:02:00.964Z,0
2023-02-02T04:06:04.043Z,0
2023-02-02T04:06:44.559Z,0
2023-02-02T04:07:25.137Z,0
2023-02-02T04:08:05.629Z,0
2023-02-02T04:08:46.184Z,0
2023-02-02T04:09:26.677Z,0
2023-02-02T04:10:07.199Z,0
2023-02-02T04:10:47.755Z,0
2023-02-02T04:11:28.239Z,0
2023-02-02T04:12:08.779Z,0
2023-02-02T04:18:54.181Z,0
2023-02-02T04:19:34.704Z,0
2023-02-02T04:20:15.246Z,0
2023-02-02T04:20:55.845Z,0
2023-02-02T04:21:36.344Z,0
2023-02-02T04:22:17.463Z,0
2023-02-02T04:22:57.997Z,0
2023-02-02T04:23:38.549Z,0
2023-02-02T04:27:36.057Z,0
2023-02-02T04:28:17.055Z,0
2023-02-02T04:28:57.591Z,0
2023-02-02T04:29:38.180Z,0
2023-02-02T04:33:00.781Z,0
2023-02-02T04:33:41.296Z,0
2023-02-02T04:34:21.842Z,0
2023-02-02T04:37:00.295Z,0
2023-02-02T04:37:40.857Z,0
2023-02-02T04:38:21.408Z,0
2023-02-02T04:39:01.976Z,0
2023-02-02T04:43:05.118Z,0
2023-02-02T04:43:45.618Z,0
2023-02-02T04:44:26.172Z,0
2023-02-02T04:45:06.717Z,0
2023-02-02T04:45:47.231Z,0
2023-02-02T04:46:28.455Z,0
2023-02-02T04:47:09.025Z,0
2023-02-02T04:47:49.521Z,0
2023-02-02T04:52:35.068Z,0
2023-02-02T04:53:15.619Z,0
2023-02-02T04:53:56.116Z,0
2023-02-02T04:54:36.614Z,0
2023-02-02T04:55:17.965Z,0
2023-02-02T04:55:58.582Z,0
2023-02-02T04:56:39.085Z,0
2023-02-02T04:57:19.626Z,0
2023-02-02T05:03:25.007Z,0
2023-02-02T05:04:05.526Z,0
2023-02-02T05:04:46.161Z,0
2023-02-02T05:05:26.798Z,0
2023-02-02T05:06:07.095Z,0
2023-02-02T05:06:47.605Z,0
2023-02-02T05:07:28.103Z,0
2023-02-02T05:08:09.863Z,0
2023-02-02T05:11:44.032Z,0
2023-02-02T05:12:24.542Z,0
2023-02-02T05:13:05.077Z,0
2023-02-02T05:13:45.629Z,0
2023-02-02T05:17:48.709Z,0
2023-02-02T05:18:29.230Z,0
2023-02-02T05:19:09.755Z,0
2023-02-02T05:19:50.291Z,0
2023-02-02T05:22:28.735Z,0
2023-02-02T05:23:09.268Z,0
2023-02-02T05:23:49.824Z,0
2023-02-02T05:24:30.351Z,0
2023-02-02T05:27:53.510Z,0
2023-02-02T05:28:34.039Z,0
2023-02-02T05:29:14.636Z,0
2023-02-02T05:31:53.105Z,0
2023-02-02T05:32:33.586Z,0
2023-02-02T05:33:14.113Z,0
2023-02-02T05:33:54.600Z,0
2023-02-02T05:37:59.329Z,0
2023-02-02T05:38:38.417Z,0
2023-02-02T05:39:18.927Z,0
2023-02-02T05:39:59.456Z,0
2023-02-02T05:40:39.976Z,0
2023-02-02T05:41:20.512Z,0
2023-02-02T05:42:01.064Z,0
2023-02-02T05:42:41.572Z,0
2023-02-02T05:43:22.111Z,0
2023-02-02T05:44:02.633Z,0
2023-02-02T05:50:47.929Z,0
2023-02-02T05:51:28.433Z,0
2023-02-02T05:52:08.959Z,0
2023-02-02T05:52:49.513Z,0
2023-02-02T05:53:30.032Z,0
2023-02-02T05:54:11.489Z,0
2023-02-02T06:00:57.728Z,0
2023-02-02T06:01:39.125Z,0
2023-02-02T06:02:19.627Z,0
2023-02-02T06:03:00.189Z,0
2023-02-02T06:03:40.782Z,0
2023-02-02T06:04:21.218Z,0
2023-02-02T06:06:59.717Z,0
2023-02-02T06:07:40.284Z,0
2023-02-02T06:08:20.815Z,0
2023-02-02T06:09:01.546Z,0
2023-02-02T06:12:24.338Z,0
2023-02-02T06:13:04.808Z,0
2023-02-02T06:13:46.082Z,0
2023-02-02T06:14:25.894Z,0
2023-02-02T06:15:06.409Z,0
2023-02-02T06:15:47.036Z,0
2023-02-02T06:16:27.435Z,0
2023-02-02T06:17:07.963Z,0
2023-02-02T06:17:48.459Z,0
2023-02-02T06:18:28.966Z,0
2023-02-02T06:24:34.472Z,0
2023-02-02T06:25:14.989Z,0
2023-02-02T06:25:55.475Z,0
2023-02-02T06:26:36.010Z,0
2023-02-02T06:27:16.508Z,0
2023-02-02T06:27:57.037Z,0
2023-02-02T06:28:37.553Z,0
2023-02-02T06:29:18.054Z,0
2023-02-02T06:29:58.657Z,0
2023-02-02T06:30:39.203Z,0
2023-02-02T06:36:44.606Z,0
2023-02-02T06:37:25.142Z,0
2023-02-02T06:38:05.688Z,0
2023-02-02T06:38:46.218Z,0
2023-02-02T06:39:26.807Z,0
2023-02-02T06:40:07.331Z,0
2023-02-02T06:40:47.826Z,0
2023-02-02T06:41:28.365Z,0
2023-02-02T06:42:20.641Z,0
2023-02-02T06:49:34.678Z,0
2023-02-02T06:50:15.206Z,0
2023-02-02T06:50:55.724Z,0
2023-02-02T06:51:36.288Z,0
2023-02-02T06:52:16.833Z,0
2023-02-02T06:52:57.373Z,0
2023-02-02T06:53:37.910Z,0
2023-02-02T06:54:18.418Z,0
2023-02-02T06:54:58.921Z,0
2023-02-02T07:01:44.511Z,5
2023-02-02T07:02:25.015Z,5
2023-02-02T07:03:05.572Z,5
2023-02-02T07:03:46.018Z,5
2023-02-02T07:04:26.554Z,5
2023-02-02T07:05:07.073Z,5
2023-02-02T07:05:47.637Z,10
2023-02-02T07:08:26.705Z,10
2023-02-02T07:09:07.218Z,10
2023-02-02T07:09:47.763Z,10
2023-02-02T07:11:14.843Z,10
2023-02-02T07:13:51.888Z,10
2023-02-02T07:14:32.394Z,15
2023-02-02T07:15:12.929Z,15
2023-02-02T07:15:53.454Z,15
2023-02-02T07:16:34.016Z,15
2023-02-02T07:17:14.560Z,15
2023-02-02T07:17:55.137Z,15
2023-02-02T07:18:35.640Z,15
2023-02-02T07:25:20.885Z,25
2023-02-02T07:26:01.402Z,25
2023-02-02T07:26:42.049Z,20
2023-02-02T07:27:22.481Z,20
2023-02-02T07:30:01.020Z,20
2023-02-02T07:30:41.598Z,20
2023-02-02T07:31:22.116Z,20
2023-02-02T07:32:02.599Z,20
2023-02-02T07:36:06.104Z,20
2023-02-02T07:36:46.608Z,20
2023-02-02T07:37:27.199Z,20
2023-02-02T07:38:07.747Z,20
2023-02-02T07:38:48.282Z,20
2023-02-02T07:39:28.826Z,20
2023-02-02T07:40:09.367Z,20
2023-02-02T07:42:47.935Z,25
2023-02-02T07:43:28.446Z,25
2023-02-02T07:44:09.184Z,25
2023-02-02T07:44:49.652Z,20
2023-02-02T07:49:04.454Z,15
2023-02-02T07:49:44.945Z,20
2023-02-02T07:50:27.183Z,20
2023-02-02T07:51:07.621Z,20
2023-02-02T07:53:20.632Z,20
2023-02-02T07:54:01.183Z,20
2023-02-02T07:54:41.728Z,15
2023-02-02T07:55:22.302Z,15
2023-02-02T07:59:25.505Z,20
2023-02-02T08:00:06.056Z,20
2023-02-02T08:00:46.613Z,25
2023-02-02T08:01:27.186Z,20
2023-02-02T08:02:07.660Z,15
2023-02-02T08:02:49.100Z,15
2023-02-02T08:03:29.455Z,15
2023-02-02T08:04:10.023Z,15
2023-02-02T08:09:22.074Z,15
2023-02-02T08:10:04.213Z,15
2023-02-02T08:10:45.329Z,15
2023-02-02T08:11:25.920Z,15
2023-02-02T08:13:38.792Z,15
2023-02-02T08:14:19.316Z,15
2023-02-02T08:14:59.927Z,15
2023-02-02T08:15:40.483Z,15
2023-02-02T08:19:03.294Z,15
2023-02-02T08:19:43.839Z,15
2023-02-02T08:20:24.435Z,15
2023-02-02T08:21:04.883Z,15
2023-02-02T08:23:43.539Z,15
2023-02-02T08:24:24.086Z,15
2023-02-02T08:25:05.663Z,15
2023-02-02T08:25:46.242Z,15
2023-02-02T08:28:41.017Z,20
2023-02-02T08:29:21.665Z,20
2023-02-02T08:30:02.289Z,20
2023-02-02T08:30:43.025Z,20
2023-02-02T08:32:04.983Z,25
2023-02-02T08:32:45.669Z,25
2023-02-02T08:33:26.235Z,20
2023-02-02T08:34:06.923Z,25
2023-02-02T08:34:47.499Z,20
2023-02-02T08:35:28.036Z,25
2023-02-02T08:36:08.627Z,20
2023-02-02T08:36:49.319Z,20
2023-02-02T08:41:35.303Z,30
2023-02-02T08:42:16.040Z,25
2023-02-02T08:42:56.681Z,35
2023-02-02T08:46:00.644Z,60
2023-02-02T08:46:16.585Z,70
2023-02-02T08:46:56.702Z,60
2023-02-02T08:47:37.346Z,50
2023-02-02T08:50:20.184Z,60
2023-02-02T08:51:01.578Z,65
2023-02-02T08:51:42.196Z,75
2023-02-02T08:52:24.831Z,80
2023-02-02T08:53:03.733Z,85
2023-02-02T08:53:44.295Z,85
2023-02-02T08:54:24.949Z,70
2023-02-02T08:58:43.454Z,60
2023-02-02T08:59:28.366Z,50
2023-02-02T09:00:10.845Z,55
2023-02-02T09:00:57.159Z,60
2023-02-02T09:01:41.371Z,60
2023-02-02T09:02:21.984Z,55
2023-02-02T09:03:05.960Z,45
2023-02-02T09:03:46.678Z,45
2023-02-02T09:04:30.036Z,45
2023-02-02T09:05:56.990Z,40
2023-02-02T09:08:27.810Z,35
2023-02-02T09:09:08.393Z,30
2023-02-02T09:09:49.188Z,35
2023-02-02T09:10:29.746Z,35
2023-02-02T09:12:32.668Z,30
2023-02-02T09:13:14.409Z,35
2023-02-02T09:13:55.170Z,35
2023-02-02T09:14:35.932Z,30
2023-02-02T09:19:22.639Z,55
2023-02-02T09:20:03.343Z,70
2023-02-02T09:20:43.994Z,90
2023-02-02T09:21:24.821Z,75
2023-02-02T09:22:05.565Z,60
2023-02-02T09:22:46.214Z,60
2023-02-02T09:23:26.809Z,75
2023-02-02T09:29:03.967Z,100
2023-02-02T09:29:44.506Z,95
2023-02-02T09:30:25.043Z,95
2023-02-02T09:31:05.626Z,95
2023-02-02T09:33:18.920Z,70
2023-02-02T09:33:59.482Z,60
2023-02-02T09:34:40.836Z,60
2023-02-02T09:35:20.676Z,65
2023-02-02T09:37:36.389Z,60
2023-02-02T09:38:17.910Z,65
2023-02-02T09:38:59.370Z,55
2023-02-02T09:39:39.824Z,55
2023-02-02T09:40:20.560Z,60
2023-02-02T09:41:01.026Z,60
2023-02-02T09:41:41.578Z,60
2023-02-02T09:42:22.115Z,55
2023-02-02T09:43:02.636Z,60
2023-02-02T09:43:43.486Z,50
2023-02-02T09:44:24.028Z,60
2023-02-02T09:45:04.684Z,70
2023-02-02T09:49:19.543Z,50
2023-02-02T09:50:01.964Z,50
2023-02-02T09:50:42.536Z,50
2023-02-02T09:51:23.141Z,50
2023-02-02T09:52:05.478Z,50
2023-02-02T09:52:47.584Z,45
2023-02-02T09:53:28.950Z,40
2023-02-02T09:57:35.081Z,40
2023-02-02T09:58:16.472Z,35
2023-02-02T09:59:02.117Z,45
2023-02-02T10:00:41.653Z,60
2023-02-02T10:01:25.630Z,80
2023-02-02T10:02:07.593Z,85
2023-02-02T10:02:48.711Z,85
2023-02-02T10:07:35.447Z,100
2023-02-02T10:08:23.107Z,95
2023-02-02T10:08:57.163Z,95
2023-02-02T10:09:37.713Z,105
2023-02-02T10:14:24.556Z,140
2023-02-02T10:15:05.204Z,145
2023-02-02T10:15:45.661Z,155
2023-02-02T10:16:26.288Z,140
2023-02-02T10:17:08.583Z,105
2023-02-02T10:21:15.691Z,85
2023-02-02T10:21:56.234Z,95
2023-02-02T10:22:36.733Z,90
2023-02-02T10:26:05.684Z,100
2023-02-02T10:26:47.553Z,155
2023-02-02T10:28:54.474Z,155
2023-02-02T10:29:48.320Z,160
2023-02-02T10:30:16.480Z,145
2023-02-02T10:30:57.880Z,135
2023-02-02T10:31:38.457Z,130
2023-02-02T10:32:18.930Z,135
2023-02-02T10:36:24.595Z,135
2023-02-02T10:37:05.966Z,140
2023-02-02T10:37:48.458Z,160
2023-02-02T10:39:54.294Z,135
2023-02-02T10:40:35.115Z,125
2023-02-02T10:41:16.979Z,130
2023-02-02T10:41:58.121Z,130
2023-02-02T10:44:54.211Z,105
2023-02-02T10:45:34.854Z,120
2023-02-02T10:46:15.492Z,130
2023-02-02T10:46:56.013Z,140
2023-02-02T10:49:01.550Z,100
2023-02-02T10:49:40.460Z,110
2023-02-02T10:50:21.019Z,110
2023-02-02T10:51:01.585Z,105
2023-02-02T10:51:42.116Z,100
2023-02-02T10:52:22.668Z,95
2023-02-02T10:54:46.697Z,80
2023-02-02T10:55:16.314Z,60
2023-02-02T10:55:57.406Z,55
2023-02-02T10:56:37.951Z,50
2023-02-02T10:58:41.221Z,50
2023-02-02T10:59:21.734Z,50
2023-02-02T11:00:02.391Z,55
2023-02-02T11:00:43.716Z,50
2023-02-02T11:01:24.272Z,55
2023-02-02T11:02:19.091Z,55
2023-02-02T11:08:37.736Z,50
2023-02-02T11:09:18.255Z,50
2023-02-02T11:09:58.811Z,60
2023-02-02T11:10:39.338Z,70
2023-02-02T11:13:01.774Z,50
2023-02-02T11:13:39.908Z,55
2023-02-02T11:14:21.300Z,55
2023-02-02T11:15:01.952Z,55
2023-02-02T11:18:56.729Z,45
2023-02-02T11:19:37.267Z,45
2023-02-02T11:20:17.844Z,40
2023-02-02T11:20:58.379Z,35
2023-02-02T11:25:58.880Z,35
2023-02-02T11:26:39.420Z,30
2023-02-02T11:27:20.207Z,35
2023-02-02T11:28:00.733Z,35
2023-02-02T11:32:04.612Z,40
2023-02-02T11:32:45.118Z,50
2023-02-02T11:33:25.657Z,50
2023-02-02T11:34:06.173Z,55
2023-02-02T11:34:47.326Z,55
2023-02-02T11:35:27.848Z,60
2023-02-02T11:36:08.425Z,60
2023-02-02T11:39:57.757Z,65
2023-02-02T11:40:38.351Z,65
2023-02-02T11:41:19.801Z,70
2023-02-02T11:42:00.441Z,65
2023-02-02T11:44:42.492Z,70
2023-02-02T11:45:23.145Z,75
2023-02-02T11:46:03.689Z,75
2023-02-02T11:46:44.224Z,75
2023-02-02T11:47:24.664Z,70
2023-02-02T11:48:05.217Z,70
2023-02-02T11:48:45.877Z,70
2023-02-02T11:49:26.473Z,70
2023-02-02T11:50:06.911Z,75
2023-02-02T11:50:47.470Z,75
2023-02-02T11:56:23.869Z,75
2023-02-02T11:57:04.424Z,65
2023-02-02T11:57:44.947Z,65
2023-02-02T11:59:57.711Z,75
2023-02-02T12:00:38.448Z,75
2023-02-02T12:01:18.914Z,80
2023-02-02T12:02:00.647Z,80
2023-02-02T12:07:56.245Z,70
2023-02-02T12:08:36.786Z,75
2023-02-02T12:09:17.356Z,80
2023-02-02T12:09:57.901Z,80
2023-02-02T12:13:31.873Z,110
2023-02-02T12:14:12.391Z,100
2023-02-02T12:14:52.945Z,110
2023-02-02T12:15:33.462Z,120
2023-02-02T12:18:02.014Z,95
2023-02-02T12:18:42.473Z,90
2023-02-02T12:19:22.963Z,85
2023-02-02T12:20:03.499Z,80
2023-02-02T12:24:06.995Z,60
2023-02-02T12:26:35.411Z,65
2023-02-02T12:27:16.481Z,65
2023-02-02T12:27:57.193Z,70
2023-02-02T12:28:37.709Z,75
2023-02-02T12:31:00.791Z,80
2023-02-02T12:31:41.289Z,80
2023-02-02T12:32:22.700Z,80
2023-02-02T12:33:03.290Z,70
2023-02-02T12:34:26.193Z,70
2023-02-02T12:37:00.549Z,70
2023-02-02T12:37:41.083Z,80
2023-02-02T12:38:21.611Z,70
2023-02-02T12:39:02.166Z,80
2023-02-02T12:43:05.536Z,70
2023-02-02T12:43:46.041Z,60
2023-02-02T12:44:26.613Z,60
2023-02-02T12:45:07.134Z,55
2023-02-02T12:45:47.782Z,55
2023-02-02T12:46:28.494Z,55
2023-02-02T12:47:09.011Z,55
2023-02-02T12:47:49.541Z,55
2023-02-02T12:48:30.156Z,50
2023-02-02T12:52:44.894Z,40
2023-02-02T12:53:25.443Z,35
2023-02-02T12:54:34.045Z,40
2023-02-02T12:54:47.802Z,40
2023-02-02T12:58:49.857Z,35
2023-02-02T12:59:30.397Z,25
2023-02-02T13:00:11.493Z,25
2023-02-02T13:00:51.999Z,30
2023-02-02T13:01:32.563Z,35
2023-02-02T13:02:13.150Z,35
2023-02-02T13:02:53.663Z,35
2023-02-02T13:03:34.222Z,35
2023-02-02T13:06:27.923Z,35
2023-02-02T13:07:08.477Z,35
2023-02-02T13:07:49.079Z,35
2023-02-02T13:08:29.594Z,35
2023-02-02T13:14:05.618Z,35
2023-02-02T13:14:46.235Z,30
2023-02-02T13:15:26.861Z,30
2023-02-02T13:16:07.411Z,30
2023-02-02T13:19:30.408Z,30
2023-02-02T13:20:10.984Z,30
2023-02-02T13:20:51.570Z,35
2023-02-02T13:21:32.121Z,35
2023-02-02T13:22:12.679Z,35
2023-02-02T13:22:53.181Z,35
2023-02-02T13:23:33.813Z,35
2023-02-02T13:24:14.403Z,35
2023-02-02T13:24:54.995Z,35
2023-02-02T13:31:00.602Z,25
2023-02-02T13:31:41.200Z,30
2023-02-02T13:32:21.712Z,30
2023-02-02T13:33:02.299Z,35
2023-02-02T13:33:42.878Z,35
2023-02-02T13:34:23.411Z,30
2023-02-02T13:35:04.007Z,35
2023-02-02T13:35:44.612Z,35
2023-02-02T13:36:25.174Z,40
2023-02-02T13:42:30.240Z,40
2023-02-02T13:43:10.805Z,35
2023-02-02T13:43:51.395Z,40
2023-02-02T13:44:31.918Z,35
2023-02-02T13:45:12.459Z,35
2023-02-02T13:45:52.992Z,30
2023-02-02T13:46:33.523Z,30
2023-02-02T13:47:14.053Z,30
2023-02-02T13:47:54.590Z,25
2023-02-02T13:48:35.130Z,25
2023-02-02T13:56:12.718Z,35
2023-02-02T13:56:53.212Z,30
2023-02-02T13:57:33.714Z,30
2023-02-02T14:00:07.351Z,35
2023-02-02T14:00:47.954Z,35
2023-02-02T14:01:28.608Z,35
2023-02-02T14:02:09.022Z,35
2023-02-02T14:03:31.905Z,35
2023-02-02T14:04:12.423Z,30
2023-02-02T14:04:53.824Z,35
2023-02-02T14:05:34.356Z,35
2023-02-02T14:06:15.626Z,35
2023-02-02T14:06:56.266Z,35
2023-02-02T14:07:36.704Z,35
2023-02-02T14:09:49.767Z,30
2023-02-02T14:10:30.823Z,30
2023-02-02T14:11:11.348Z,30
2023-02-02T14:11:52.624Z,30
2023-02-02T14:14:21.621Z,35
2023-02-02T14:15:02.175Z,35
2023-02-02T14:15:42.806Z,35
2023-02-02T14:16:23.293Z,45
2023-02-02T14:18:36.365Z,45
2023-02-02T14:19:16.926Z,40
2023-02-02T14:19:57.466Z,40
2023-02-02T14:20:38.267Z,35
2023-02-02T14:22:57.210Z,25
2023-02-02T14:23:38.609Z,25
2023-02-02T14:24:21.609Z,25
2023-02-02T14:25:05.009Z,20
2023-02-02T14:27:19.877Z,20
2023-02-02T14:28:01.307Z,20
2023-02-02T14:28:41.951Z,20
2023-02-02T14:29:22.601Z,20
2023-02-02T14:31:35.992Z,20
2023-02-02T14:32:16.398Z,20
2023-02-02T14:32:56.943Z,20
2023-02-02T14:33:37.499Z,20
2023-02-02T14:35:56.191Z,20
2023-02-02T14:36:37.665Z,20
2023-02-02T14:37:18.188Z,20
2023-02-02T14:37:58.787Z,20
2023-02-02T14:40:53.922Z,20
2023-02-02T14:41:35.476Z,20
2023-02-02T14:42:15.946Z,20
2023-02-02T14:42:56.517Z,20
2023-02-02T14:45:09.794Z,20
2023-02-02T14:45:50.376Z,25
2023-02-02T14:46:31.764Z,25
2023-02-02T14:47:12.372Z,25
2023-02-02T14:49:54.474Z,25
2023-02-02T14:50:35.017Z,25
2023-02-02T14:51:16.171Z,25
2023-02-02T14:51:56.746Z,25
2023-02-02T14:52:38.156Z,25
2023-02-02T14:53:18.703Z,20
2023-02-02T14:58:15.148Z,20
2023-02-02T14:58:55.663Z,20
2023-02-02T14:59:36.238Z,20
2023-02-02T15:00:16.715Z,20
2023-02-02T15:05:15.595Z,20
2023-02-02T15:05:57.965Z,20
2023-02-02T15:06:37.373Z,20
2023-02-02T15:07:21.653Z,25
2023-02-02T15:08:03.171Z,25
2023-02-02T15:08:50.049Z,25
2023-02-02T15:09:30.637Z,25
2023-02-02T15:10:11.952Z,25
2023-02-02T15:13:10.044Z,30
2023-02-02T15:13:50.581Z,30
2023-02-02T15:14:31.117Z,30
2023-02-02T15:15:11.661Z,30
2023-02-02T15:18:45.945Z,35
2023-02-02T15:19:26.446Z,35
2023-02-02T15:20:07.008Z,35
2023-02-02T15:20:47.566Z,35
2023-02-02T15:23:42.069Z,35
2023-02-02T15:24:22.595Z,35
2023-02-02T15:25:03.099Z,30
2023-02-02T15:25:43.721Z,30
2023-02-02T15:28:42.839Z,30
2023-02-02T15:29:25.321Z,25
2023-02-02T15:30:10.456Z,25
2023-02-02T15:30:53.699Z,25
2023-02-02T15:31:34.923Z,25
2023-02-02T15:32:20.265Z,20
2023-02-02T15:33:45.426Z,20
2023-02-02T15:35:57.353Z,15
2023-02-02T15:36:39.443Z,15
2023-02-02T15:38:47.104Z,15
2023-02-02T15:39:28.651Z,15
2023-02-02T15:40:09.123Z,15
2023-02-02T15:41:36.701Z,15
2023-02-02T15:42:17.950Z,15
2023-02-02T15:42:59.220Z,15
2023-02-02T15:43:47.170Z,15
2023-02-02T15:44:27.496Z,15
2023-02-02T15:45:55.515Z,10
2023-02-02T15:46:47.606Z,10
2023-02-02T15:47:34.451Z,10
2023-02-02T15:48:17.506Z,10
2023-02-02T15:48:59.373Z,10
2023-02-02T15:49:47.435Z,10
2023-02-02T15:50:29.399Z,10
2023-02-02T15:51:22.537Z,5
2023-02-02T15:52:06.510Z,10
2023-02-02T15:52:55.505Z,10
2023-02-02T15:53:36.976Z,5
2023-02-02T15:55:10.589Z,5
2023-02-02T15:55:58.627Z,5
2023-02-02T15:58:17.369Z,5
2023-02-02T15:59:03.422Z,5
2023-02-02T15:59:48.492Z,5
2023-02-02T16:01:15.070Z,5
2023-02-02T16:03:33.175Z,0
2023-02-02T16:04:13.746Z,0
2023-02-02T16:04:54.303Z,0
2023-02-02T16:05:34.839Z,0
2023-02-02T16:08:58.283Z,0
2023-02-02T16:09:38.836Z,0
2023-02-02T16:12:17.325Z,0
2023-02-02T16:12:57.856Z,0
2023-02-02T16:13:38.392Z,0
2023-02-02T16:14:18.924Z,0
2023-02-02T16:17:02.037Z,0
2023-02-02T16:17:42.584Z,0
2023-02-02T16:18:23.079Z,0
2023-02-02T16:19:03.592Z,0
2023-02-02T16:19:44.133Z,0
2023-02-02T16:20:25.442Z,0
2023-02-02T16:21:05.949Z,0
2023-02-02T16:21:46.528Z,0
2023-02-02T16:26:33.210Z,0
2023-02-02T16:27:14.359Z,0
2023-02-02T16:27:54.888Z,0
2023-02-02T16:28:35.404Z,0
2023-02-02T16:29:15.968Z,0
2023-02-02T16:29:56.499Z,0
2023-02-02T16:36:53.921Z,0
2023-02-02T16:37:34.496Z,0
2023-02-02T16:38:15.113Z,0
2023-02-02T16:40:55.031Z,0
2023-02-02T16:41:35.620Z,0
2023-02-02T16:42:16.185Z,0
2023-02-02T16:42:56.699Z,0
2023-02-02T16:46:59.914Z,0
2023-02-02T16:47:40.439Z,0
2023-02-02T16:48:21.021Z,0
2023-02-02T16:50:59.541Z,0
2023-02-02T16:51:40.070Z,0
2023-02-02T16:52:20.656Z,0
2023-02-02T16:53:01.204Z,0
2023-02-02T16:57:04.497Z,0
2023-02-02T16:57:45.031Z,0
2023-02-02T16:58:25.799Z,0
2023-02-02T16:59:06.345Z,0
2023-02-02T16:59:46.886Z,0
2023-02-02T17:00:27.423Z,0
2023-02-02T17:01:15.315Z,0
2023-02-02T17:01:48.491Z,0
2023-02-02T17:02:29.003Z,0
2023-02-02T17:09:14.298Z,0
2023-02-02T17:09:54.834Z,0
2023-02-02T17:10:35.375Z,0
2023-02-02T17:11:15.888Z,0
2023-02-02T17:11:56.458Z,0
2023-02-02T17:12:36.936Z,0
2023-02-02T17:13:17.490Z,0
2023-02-02T17:13:58.050Z,0
2023-02-02T17:14:38.585Z,0
2023-02-02T17:15:19.171Z,0
2023-02-02T17:20:55.480Z,0
2023-02-02T17:21:36.027Z,0
2023-02-02T17:22:16.531Z,0
2023-02-02T17:22:57.091Z,0
2023-02-02T17:27:00.379Z,0
2023-02-02T17:29:38.891Z,0
2023-02-02T17:30:19.410Z,0
2023-02-02T17:31:00.170Z,0
2023-02-02T17:31:41.249Z,0
2023-02-02T17:35:03.714Z,0
2023-02-02T17:35:54.078Z,0
2023-02-02T17:36:24.827Z,0
2023-02-02T17:37:06.139Z,0
2023-02-02T17:39:44.727Z,0
2023-02-02T17:40:25.532Z,0
2023-02-02T17:41:05.769Z,0
2023-02-02T17:41:46.292Z,0
2023-02-02T17:44:44.625Z,0
2023-02-02T17:45:34.024Z,0
2023-02-02T17:46:14.978Z,0
2023-02-02T17:48:59.235Z,0
2023-02-02T17:49:39.755Z,0
2023-02-02T17:50:20.276Z,0
2023-02-02T17:51:00.832Z,0
2023-02-02T17:53:13.921Z,0
2023-02-02T17:53:54.400Z,0
2023-02-02T17:54:35.530Z,0
2023-02-02T17:55:16.135Z,0
2023-02-02T17:57:34.788Z,0
2023-02-02T17:58:17.981Z,0
2023-02-02T17:58:59.984Z,0
2023-02-02T18:01:41.129Z,0
2023-02-02T18:02:22.435Z,0
2023-02-02T18:03:03.110Z,0
2023-02-02T18:03:43.953Z,0
2023-02-02T18:04:26.179Z,0
2023-02-02T18:05:07.301Z,0
2023-02-02T18:05:47.952Z,0
2023-02-02T18:06:28.581Z,0
2023-02-02T18:07:09.330Z,0
2023-02-02T18:07:50.065Z,0
2023-02-02T18:09:17.405Z,0
2023-02-02T18:09:58.164Z,0
2023-02-02T18:10:38.838Z,0
2023-02-02T18:11:19.650Z,0
2023-02-02T18:16:45.685Z,0
2023-02-02T18:17:26.350Z,0
2023-02-02T18:18:08.518Z,0